Time;durP1;ratioP1;P1;durP2;ratioP2;P2;SDS_P1;SDS_P2;PMS_P1;PMS_P2;Temp;Humidity;BMP_temperature;BMP_pressure;BME280_temperature;BME280_humidity;BME280_pressure;Samples;Min_cycle;Max_cycle;Signal;HPM_P1;HPM_P2
2023/09/05 00:01:50;;;;;;;5.07;3.43;;;;;17.30;101590.00;;;;5018795;28;20237;-70
2023/09/05 00:04:38;;;;;;;5.57;3.73;;;;;17.30;101597.00;;;;5021240;28;20233;-70
2023/09/05 00:07:27;;;;;;;3.47;3.17;;;;;17.20;101586.00;;;;5016753;28;20234;-71
2023/09/05 00:10:13;;;;;;;5.40;3.73;;;;;17.20;101598.00;;;;5021641;28;20233;-71
2023/09/05 00:13:05;;;;;;;4.93;3.47;;;;;17.20;101597.00;;;;5018136;28;20260;-71
2023/09/05 00:15:52;;;;;;;4.00;3.43;;;;;17.10;101593.00;;;;5021588;28;20225;-70
2023/09/05 00:18:39;;;;;;;8.67;3.73;;;;;17.10;101593.00;;;;5018515;28;20218;-70
2023/09/05 00:21:26;;;;;;;4.07;3.23;;;;;17.10;101591.00;;;;5024814;28;20233;-70
2023/09/05 00:24:31;;;;;;;4.23;3.00;;;;;17.00;101589.00;;;;5031205;28;20233;-71
2023/09/05 00:27:17;;;;;;;5.43;3.53;;;;;17.00;101590.00;;;;5045254;28;20293;-71
2023/09/05 00:30:04;;;;;;;4.00;3.40;;;;;17.00;101600.00;;;;5035910;28;20225;-72
2023/09/05 00:32:51;;;;;;;4.57;3.63;;;;;17.10;101600.00;;;;5037972;28;20249;-70
2023/09/05 00:35:38;;;;;;;4.40;3.33;;;;;17.10;101604.00;;;;5033406;28;20234;-70
2023/09/05 00:38:25;;;;;;;6.70;3.43;;;;;17.00;101603.00;;;;5048226;28;20241;-71
2023/09/05 00:41:11;;;;;;;4.53;3.30;;;;;17.00;101606.00;;;;5047017;28;20241;-71
2023/09/05 00:43:59;;;;;;;5.07;3.77;;;;;17.00;101593.00;;;;5045929;28;20280;-71
2023/09/05 00:46:47;;;;;;;6.30;3.40;;;;;16.90;101592.00;;;;5041436;28;20994;-72
2023/09/05 00:49:47;;;;;;;4.47;3.53;;;;;16.90;101579.00;;;;5024857;28;20950;-69
2023/09/05 00:52:36;;;;;;;7.33;3.73;;;;;16.90;101584.00;;;;5025790;28;20244;-72
2023/09/05 00:55:22;;;;;;;3.83;3.10;;;;;16.80;101585.00;;;;5022641;28;20230;-71
2023/09/05 00:58:10;;;;;;;5.33;3.43;;;;;16.80;101592.00;;;;5024289;28;20295;-70
2023/09/05 01:00:57;;;;;;;5.00;3.70;;;;;16.80;101601.00;;;;5026613;28;20332;-71
2023/09/05 01:03:43;;;;;;;6.23;3.80;;;;;16.80;101589.00;;;;5017184;28;20233;-71
2023/09/05 01:06:37;;;;;;;5.67;3.50;;;;;16.80;101586.00;;;;5022883;28;20233;-70
2023/09/05 01:09:43;;;;;;;5.77;3.43;;;;;16.80;101587.00;;;;5018268;28;20232;-71
2023/09/05 01:12:29;;;;;;;3.93;3.40;;;;;16.70;101588.00;;;;5022558;28;20302;-71
2023/09/05 01:15:16;;;;;;;5.60;3.50;;;;;16.70;101581.00;;;;5023455;28;20229;-71
2023/09/05 01:18:02;;;;;;;4.37;3.30;;;;;16.70;101584.00;;;;5020530;28;20292;-72
2023/09/05 01:20:59;;;;;;;4.13;3.43;;;;;16.70;101588.00;;;;5015177;28;20238;-72
2023/09/05 01:23:50;;;;;;;4.30;3.27;;;;;16.70;101577.00;;;;5013228;28;20600;-70
2023/09/05 01:26:39;;;;;;;6.30;3.50;;;;;16.60;101582.00;;;;5021649;28;20257;-71
2023/09/05 01:29:30;;;;;;;5.73;3.87;;;;;16.70;101571.00;;;;5024648;28;20308;-71
2023/09/05 01:32:17;;;;;;;6.03;3.30;;;;;16.60;101579.00;;;;5021948;28;20230;-70
2023/09/05 01:35:04;;;;;;;5.47;3.50;;;;;16.60;101578.00;;;;5021135;28;20236;-71
2023/09/05 01:37:51;;;;;;;6.30;3.30;;;;;16.60;101580.00;;;;5018802;28;20279;-70
2023/09/05 01:40:37;;;;;;;5.07;3.07;;;;;16.60;101582.00;;;;5019828;28;20369;-70
2023/09/05 01:43:25;;;;;;;5.50;3.40;;;;;16.50;101575.00;;;;5024870;28;20268;-69
2023/09/05 01:46:11;;;;;;;3.67;3.03;;;;;16.50;101577.00;;;;5025808;28;20303;-70
2023/09/05 01:48:57;;;;;;;6.53;3.30;;;;;16.50;101577.00;;;;5026856;28;20244;-71
2023/09/05 01:51:44;;;;;;;6.20;3.30;;;;;16.50;101578.00;;;;5023978;28;20592;-72
2023/09/05 01:54:30;;;;;;;4.53;3.30;;;;;16.50;101583.00;;;;5024902;28;20244;-71
2023/09/05 02:00:17;;;;;;;5.73;3.50;;;;;16.50;101586.00;;;;5086667;23;20744;-70
2023/09/05 02:03:05;;;;;;;4.90;3.77;;;;;16.50;101583.00;;;;4937402;28;20247;-68
2023/09/05 02:05:51;;;;;;;5.10;3.50;;;;;16.40;101579.00;;;;4944997;28;20255;-69
2023/09/05 02:08:37;;;;;;;4.53;3.37;;;;;16.40;101585.00;;;;4929541;28;20245;-69
2023/09/05 02:11:24;;;;;;;5.30;3.50;;;;;16.40;101582.00;;;;4916080;28;20232;-68
2023/09/05 02:14:10;;;;;;;4.93;3.97;;;;;16.40;101579.00;;;;4921948;29;20732;-69
2023/09/05 02:16:58;;;;;;;4.33;3.53;;;;;16.40;101583.00;;;;4912450;29;20232;-68
2023/09/05 02:19:44;;;;;;;3.83;3.40;;;;;16.40;101581.00;;;;4918493;29;20236;-69
2023/09/05 02:22:30;;;;;;;6.43;3.90;;;;;16.40;101577.00;;;;4920306;29;20611;-68
2023/09/05 02:25:17;;;;;;;4.93;3.53;;;;;16.40;101585.00;;;;4915909;29;20223;-68
2023/09/05 02:28:04;;;;;;;5.10;3.70;;;;;16.30;101584.00;;;;4927402;28;20260;-70
2023/09/05 02:30:51;;;;;;;4.93;3.40;;;;;16.30;101580.00;;;;4918375;29;20237;-68
2023/09/05 02:33:38;;;;;;;5.20;3.80;;;;;16.30;101582.00;;;;4923046;29;20777;-68
2023/09/05 02:36:25;;;;;;;7.03;3.77;;;;;16.30;101595.00;;;;4923183;29;20229;-67
2023/09/05 02:39:11;;;;;;;6.03;4.03;;;;;16.30;101592.00;;;;4919875;29;20241;-67
2023/09/05 02:41:57;;;;;;;4.83;3.87;;;;;16.30;101597.00;;;;4927583;29;20777;-70
2023/09/05 02:44:43;;;;;;;5.00;4.30;;;;;16.30;101594.00;;;;4922983;29;20252;-69
2023/09/05 02:47:30;;;;;;;7.70;4.37;;;;;16.40;101597.00;;;;4911848;29;20232;-70
2023/09/05 02:50:17;;;;;;;5.53;4.10;;;;;16.40;101593.00;;;;4920416;29;20610;-69
2023/09/05 02:53:04;;;;;;;6.63;4.90;;;;;16.40;101600.00;;;;4909337;29;20245;-69
2023/09/05 02:55:50;;;;;;;9.37;5.00;;;;;16.40;101597.00;;;;4922500;29;20236;-69
2023/09/05 02:58:36;;;;;;;6.70;4.73;;;;;16.40;101595.00;;;;4928927;29;20240;-66
2023/09/05 03:01:22;;;;;;;5.10;4.37;;;;;16.40;101595.00;;;;4925559;29;20397;-69
2023/09/05 03:04:09;;;;;;;6.33;4.53;;;;;16.50;101593.00;;;;4911043;29;20299;-68
2023/09/05 03:06:57;;;;;;;7.97;4.40;;;;;16.40;101592.00;;;;4923232;29;20289;-69
2023/09/05 03:09:43;;;;;;;5.93;4.50;;;;;16.40;101579.00;;;;4924320;29;20237;-68
2023/09/05 03:12:29;;;;;;;6.23;4.83;;;;;16.40;101581.00;;;;4918089;29;20221;-70
2023/09/05 03:15:18;;;;;;;5.37;4.83;;;;;16.40;101582.00;;;;4919837;29;20269;-70
2023/09/05 03:18:05;;;;;;;6.63;4.70;;;;;16.40;101592.00;;;;4904293;29;20237;-69
2023/09/05 03:20:51;;;;;;;6.20;4.20;;;;;16.40;101591.00;;;;4920342;29;20865;-69
2023/09/05 03:23:39;;;;;;;6.60;4.30;;;;;16.30;101588.00;;;;4910472;29;20224;-69
2023/09/05 03:26:25;;;;;;;6.63;4.50;;;;;16.30;101582.00;;;;4924596;29;20598;-68
2023/09/05 03:29:12;;;;;;;7.00;3.97;;;;;16.30;101590.00;;;;4924029;29;20745;-69
2023/09/05 03:31:59;;;;;;;5.20;4.40;;;;;16.20;101587.00;;;;4922649;29;20236;-67
2023/09/05 03:34:48;;;;;;;5.70;4.60;;;;;16.20;101588.00;;;;4917095;29;20229;-68
2023/09/05 03:37:37;;;;;;;9.40;5.50;;;;;16.30;101592.00;;;;4920865;29;20242;-70
2023/09/05 03:40:25;;;;;;;6.07;4.87;;;;;16.20;101595.00;;;;4922595;29;20245;-68
2023/09/05 03:43:11;;;;;;;8.00;5.63;;;;;16.20;101594.00;;;;4919662;29;20331;-70
2023/09/05 03:45:58;;;;;;;7.83;4.80;;;;;16.20;101594.00;;;;4929804;28;20253;-71
2023/09/05 03:48:45;;;;;;;8.90;4.57;;;;;16.20;101594.00;;;;4918231;29;20338;-71
2023/09/05 03:51:32;;;;;;;7.13;4.97;;;;;16.10;101586.00;;;;4919239;29;20228;-70
2023/09/05 03:54:19;;;;;;;5.80;4.60;;;;;16.10;101584.00;;;;4913641;29;20236;-70
2023/09/05 03:57:06;;;;;;;6.27;4.37;;;;;16.20;101591.00;;;;4929950;29;20236;-70
2023/09/05 03:59:53;;;;;;;6.00;4.50;;;;;16.10;101594.00;;;;4912285;29;20236;-68
2023/09/05 04:02:39;;;;;;;11.97;4.80;;;;;16.10;101588.00;;;;4930499;29;20265;-70
2023/09/05 04:05:25;;;;;;;5.67;4.90;;;;;16.10;101591.00;;;;4922532;28;20349;-68
2023/09/05 04:08:12;;;;;;;11.77;5.17;;;;;16.00;101581.00;;;;4924321;29;20249;-67
2023/09/05 04:10:59;;;;;;;7.10;5.23;;;;;16.00;101574.00;;;;4919261;29;20240;-68
2023/09/05 04:13:47;;;;;;;8.60;4.90;;;;;16.00;101575.00;;;;4917280;28;20249;-70
2023/09/05 04:16:33;;;;;;;6.60;5.20;;;;;16.00;101580.00;;;;4925449;29;20321;-69
2023/09/05 04:19:20;;;;;;;6.60;5.07;;;;;15.90;101568.00;;;;4926867;29;20363;-69
2023/09/05 04:22:06;;;;;;;5.83;5.07;;;;;15.90;101574.00;;;;4919265;29;20726;-70
2023/09/05 04:24:53;;;;;;;6.07;4.57;;;;;15.90;101568.00;;;;4919154;29;21037;-68
2023/09/05 04:27:39;;;;;;;7.70;5.03;;;;;15.90;101563.00;;;;4925135;28;20237;-70
2023/09/05 04:30:27;;;;;;;8.10;5.17;;;;;15.80;101567.00;;;;4923246;29;20248;-70
2023/09/05 04:33:13;;;;;;;9.60;5.10;;;;;15.80;101561.00;;;;4933856;29;20237;-69
2023/09/05 04:35:59;;;;;;;6.97;5.30;;;;;15.80;101565.00;;;;4921579;29;20232;-69
2023/09/05 04:38:49;;;;;;;7.30;4.90;;;;;15.80;101569.00;;;;4926887;28;20265;-69
2023/09/05 04:41:36;;;;;;;5.70;4.20;;;;;15.70;101567.00;;;;4932807;29;20240;-72
2023/09/05 04:44:22;;;;;;;5.63;4.30;;;;;15.70;101575.00;;;;4927330;29;20284;-69
2023/09/05 04:47:24;;;;;;;5.37;4.40;;;;;15.70;101563.00;;;;4926119;28;20232;-68
2023/09/05 04:50:11;;;;;;;6.87;3.90;;;;;15.70;101573.00;;;;4924939;29;20244;-69
2023/09/05 04:52:57;;;;;;;5.37;4.33;;;;;15.60;101581.00;;;;4915264;29;20286;-70
2023/09/05 04:55:43;;;;;;;5.97;4.60;;;;;15.60;101585.00;;;;4918027;29;20245;-69
2023/09/05 04:58:31;;;;;;;7.87;4.77;;;;;15.60;101581.00;;;;4923511;29;20320;-71
2023/09/05 05:01:18;;;;;;;8.77;4.63;;;;;15.60;101579.00;;;;4928639;29;20252;-69
2023/09/05 05:04:06;;;;;;;5.73;4.70;;;;;15.60;101583.00;;;;4927094;29;20228;-69
2023/09/05 05:06:52;;;;;;;6.43;4.60;;;;;15.60;101580.00;;;;4921820;28;20253;-69
2023/09/05 05:09:40;;;;;;;5.33;4.67;;;;;15.60;101583.00;;;;4924712;28;20240;-69
2023/09/05 05:12:26;;;;;;;7.87;4.80;;;;;15.60;101574.00;;;;4915236;29;20228;-67
2023/09/05 05:15:13;;;;;;;6.53;4.80;;;;;15.60;101582.00;;;;4926298;28;20233;-69
2023/09/05 05:17:59;;;;;;;7.73;4.93;;;;;15.70;101587.00;;;;4918732;29;20621;-69
2023/09/05 05:20:47;;;;;;;6.20;4.90;;;;;15.70;101588.00;;;;4915205;29;20761;-71
2023/09/05 05:23:34;;;;;;;7.43;5.03;;;;;15.70;101582.00;;;;4923109;29;20242;-70
2023/09/05 05:26:20;;;;;;;8.67;5.10;;;;;15.80;101578.00;;;;4920929;29;20228;-69
2023/09/05 05:29:07;;;;;;;7.77;4.43;;;;;15.80;101580.00;;;;4924850;28;20233;-70
2023/09/05 05:31:53;;;;;;;8.63;5.27;;;;;15.80;101584.00;;;;4913123;29;20236;-70
2023/09/05 05:34:40;;;;;;;6.77;4.93;;;;;15.90;101587.00;;;;4920678;29;20248;-68
2023/09/05 05:37:28;;;;;;;8.37;5.70;;;;;15.90;101585.00;;;;4921331;28;20625;-71
2023/09/05 05:40:16;;;;;;;6.17;5.13;;;;;16.00;101582.00;;;;4918640;28;20234;-71
2023/09/05 05:43:02;;;;;;;7.43;5.53;;;;;16.00;101581.00;;;;4916932;29;20233;-69
2023/09/05 05:45:49;;;;;;;7.13;5.77;;;;;16.10;101589.00;;;;4915340;29;20684;-71
2023/09/05 05:48:35;;;;;;;7.50;5.43;;;;;16.20;101589.00;;;;4926169;29;20605;-70
2023/09/05 05:51:22;;;;;;;6.70;5.40;;;;;16.20;101592.00;;;;4914638;29;20233;-70
2023/09/05 05:54:09;;;;;;;8.33;6.37;;;;;16.30;101592.00;;;;4923258;29;20261;-70
2023/09/05 05:56:57;;;;;;;8.00;5.90;;;;;16.40;101593.00;;;;4923939;29;20880;-69
2023/09/05 05:59:43;;;;;;;10.93;6.63;;;;;16.50;101595.00;;;;4918547;29;20319;-70
2023/09/05 06:02:29;;;;;;;10.73;6.43;;;;;16.60;101603.00;;;;4924391;29;20241;-71
2023/09/05 06:05:16;;;;;;;10.47;6.73;;;;;16.70;101598.00;;;;4923495;28;20907;-69
2023/09/05 06:08:03;;;;;;;11.03;6.57;;;;;16.70;101595.00;;;;4921400;28;20237;-70
2023/09/05 06:10:50;;;;;;;11.03;6.83;;;;;16.70;101591.00;;;;4919939;28;20240;-70
2023/09/05 06:13:37;;;;;;;9.10;6.13;;;;;16.70;101594.00;;;;4922812;29;20713;-70
2023/09/05 06:16:23;;;;;;;7.50;5.93;;;;;16.80;101594.00;;;;4915768;29;20232;-70
2023/09/05 06:19:10;;;;;;;9.50;6.63;;;;;16.80;101588.00;;;;4908474;29;20623;-70
2023/09/05 06:21:58;;;;;;;8.70;6.60;;;;;16.80;101591.00;;;;4920864;28;20228;-71
2023/09/05 06:24:44;;;;;;;9.30;6.83;;;;;16.90;101592.00;;;;4923842;29;20304;-70
2023/09/05 06:27:32;;;;;;;8.47;6.73;;;;;16.90;101603.00;;;;4913576;29;20240;-68
2023/09/05 06:30:18;;;;;;;11.03;6.63;;;;;17.00;101594.00;;;;4917699;28;20301;-68
2023/09/05 06:33:05;;;;;;;9.13;6.47;;;;;17.10;101598.00;;;;4922921;29;20935;-68
2023/09/05 06:35:51;;;;;;;9.70;6.13;;;;;17.10;101601.00;;;;4925911;29;21001;-69
2023/09/05 06:38:39;;;;;;;9.63;6.33;;;;;17.10;101596.00;;;;4923830;28;20319;-68
2023/09/05 06:41:25;;;;;;;8.93;6.53;;;;;17.20;101595.00;;;;4921957;28;20228;-68
2023/09/05 06:44:15;;;;;;;8.03;6.20;;;;;17.30;101603.00;;;;4916766;28;20232;-70
2023/09/05 06:47:01;;;;;;;9.23;6.23;;;;;17.30;101599.00;;;;4913344;29;20229;-70
2023/09/05 06:49:47;;;;;;;6.60;5.73;;;;;17.40;101594.00;;;;4925199;29;20248;-69
2023/09/05 06:52:33;;;;;;;7.57;5.60;;;;;17.40;101592.00;;;;4916367;29;20279;-69
2023/09/05 06:55:20;;;;;;;8.13;5.10;;;;;17.50;101592.00;;;;4917700;28;20303;-70
2023/09/05 06:58:06;;;;;;;8.57;5.27;;;;;17.50;101589.00;;;;4919661;29;20257;-70
2023/09/05 07:00:55;;;;;;;9.97;5.40;;;;;17.60;101596.00;;;;4924795;29;20284;-71
2023/09/05 07:03:41;;;;;;;6.90;5.13;;;;;17.70;101603.00;;;;4923595;29;20883;-68
2023/09/05 07:06:27;;;;;;;8.10;5.23;;;;;17.80;101600.00;;;;4916465;29;20229;-68
2023/09/05 07:09:14;;;;;;;7.20;5.27;;;;;17.80;101613.00;;;;4914799;29;20232;-69
2023/09/05 07:12:01;;;;;;;7.53;5.37;;;;;17.90;101612.00;;;;4917395;28;20620;-70
2023/09/05 07:14:49;;;;;;;6.17;5.00;;;;;18.00;101607.00;;;;4923416;29;20734;-69
2023/09/05 07:17:36;;;;;;;5.47;4.33;;;;;18.10;101615.00;;;;4916903;29;20236;-68
2023/09/05 07:20:24;;;;;;;7.20;4.60;;;;;18.20;101623.00;;;;4918656;29;20233;-69
2023/09/05 07:23:11;;;;;;;9.87;4.67;;;;;18.30;101615.00;;;;4923130;28;20305;-70
2023/09/05 07:25:57;;;;;;;5.27;4.10;;;;;18.50;101607.00;;;;4911780;29;20308;-70
2023/09/05 07:28:46;;;;;;;5.83;4.17;;;;;18.50;101608.00;;;;4919590;29;20312;-68
2023/09/05 07:31:33;;;;;;;6.20;4.17;;;;;18.60;101603.00;;;;4923720;29;20237;-72
2023/09/05 07:34:20;;;;;;;5.40;3.83;;;;;18.80;101620.00;;;;4920842;29;20250;-68
2023/09/05 07:37:07;;;;;;;5.03;4.07;;;;;18.90;101613.00;;;;4918358;29;20249;-68
2023/09/05 07:39:53;;;;;;;4.10;3.50;;;;;18.90;101606.00;;;;4921410;29;20245;-69
2023/09/05 07:42:41;;;;;;;5.80;3.53;;;;;19.00;101607.00;;;;4921636;29;20231;-68
2023/09/05 07:45:28;;;;;;;5.70;4.03;;;;;19.10;101599.00;;;;4921146;29;20246;-68
2023/09/05 07:48:14;;;;;;;4.57;3.43;;;;;19.20;101609.00;;;;4923294;29;20734;-67
2023/09/05 07:51:04;;;;;;;6.83;3.57;;;;;19.30;101617.00;;;;4920222;29;20249;-67
2023/09/05 07:53:59;;;;;;;5.90;3.10;;;;;19.40;101606.00;;;;4919147;29;20241;-68
2023/09/05 07:56:46;;;;;;;8.00;3.53;;;;;19.50;101606.00;;;;4920233;28;20286;-68
2023/09/05 07:59:32;;;;;;;4.37;3.33;;;;;19.60;101603.00;;;;4926511;28;20235;-69
2023/09/05 08:02:18;;;;;;;4.27;3.00;;;;;19.70;101604.00;;;;4929669;29;20715;-65
2023/09/05 08:05:06;;;;;;;5.00;3.20;;;;;19.90;101607.00;;;;4920408;29;20280;-68
2023/09/05 08:07:54;;;;;;;5.90;3.00;;;;;20.00;101608.00;;;;4913555;28;20246;-65
2023/09/05 08:10:41;;;;;;;10.97;3.33;;;;;20.00;101605.00;;;;4927133;28;20245;-69
2023/09/05 08:13:28;;;;;;;6.97;3.03;;;;;20.20;101601.00;;;;4924343;29;21015;-69
2023/09/05 08:16:15;;;;;;;4.57;2.93;;;;;20.30;101591.00;;;;4918892;28;20239;-68
2023/09/05 08:19:02;;;;;;;8.30;2.97;;;;;20.40;101592.00;;;;4921706;29;20228;-68
2023/09/05 08:21:48;;;;;;;4.70;3.40;;;;;20.60;101588.00;;;;4920276;29;20727;-66
2023/09/05 08:24:36;;;;;;;4.77;3.10;;;;;20.70;101594.00;;;;4922664;28;20351;-69
2023/09/05 08:27:28;;;;;;;7.93;3.17;;;;;20.80;101585.00;;;;4925342;29;20228;-70
2023/09/05 08:30:15;;;;;;;4.80;2.83;;;;;20.90;101586.00;;;;4927829;28;20628;-69
2023/09/05 08:33:02;;;;;;;3.20;2.73;;;;;21.20;101595.00;;;;4926808;28;20228;-68
2023/09/05 08:35:49;;;;;;;3.60;2.83;;;;;21.40;101591.00;;;;4921764;29;20353;-69
2023/09/05 08:38:37;;;;;;;6.20;3.03;;;;;21.60;101586.00;;;;4911707;29;20632;-69
2023/09/05 08:41:25;;;;;;;3.77;2.80;;;;;21.80;101590.00;;;;4916917;29;20237;-68
2023/09/05 08:44:12;;;;;;;3.53;2.80;;;;;21.90;101585.00;;;;4926312;29;20232;-67
2023/09/05 08:47:01;;;;;;;9.60;3.23;;;;;22.10;101580.00;;;;4918335;28;20233;-69
2023/09/05 08:49:50;;;;;;;3.20;2.90;;;;;22.30;101579.00;;;;4920938;29;20240;-68
2023/09/05 08:52:38;;;;;;;3.47;2.70;;;;;22.50;101583.00;;;;4910980;29;20248;-70
2023/09/05 08:55:25;;;;;;;3.73;2.60;;;;;22.70;101575.00;;;;4925933;29;20275;-65
2023/09/05 08:58:16;;;;;;;4.37;2.50;;;;;22.80;101575.00;;;;4924503;29;20330;-67
2023/09/05 09:01:03;;;;;;;4.37;2.97;;;;;22.90;101569.00;;;;4918333;29;21034;-68
2023/09/05 09:03:49;;;;;;;4.67;2.83;;;;;23.00;101577.00;;;;4921885;29;20713;-69
2023/09/05 09:06:36;;;;;;;4.30;2.70;;;;;23.20;101567.00;;;;4925417;29;20289;-69
2023/09/05 09:09:34;;;;;;;2.73;2.50;;;;;23.30;101577.00;;;;4922396;29;20232;-67
2023/09/05 09:12:28;;;;;;;3.10;2.50;;;;;23.40;101571.00;;;;4923429;28;20233;-71
2023/09/05 09:15:15;;;;;;;4.77;2.70;;;;;23.60;101571.00;;;;4925459;29;20319;-70
2023/09/05 09:18:02;;;;;;;4.17;2.60;;;;;23.80;101574.00;;;;4923369;29;20725;-71
2023/09/05 09:20:50;;;;;;;4.77;2.60;;;;;23.80;101571.00;;;;4919866;29;20636;-69
2023/09/05 09:23:38;;;;;;;4.00;2.67;;;;;24.00;101578.00;;;;4917306;29;20316;-66
2023/09/05 09:26:26;;;;;;;3.73;2.37;;;;;24.10;101569.00;;;;4926059;29;20798;-69
2023/09/05 09:29:13;;;;;;;7.47;2.40;;;;;24.20;101566.00;;;;4923982;29;20229;-71
2023/09/05 09:32:03;;;;;;;3.90;2.40;;;;;24.40;101568.00;;;;4918494;29;20247;-70
2023/09/05 09:34:51;;;;;;;4.30;2.60;;;;;24.40;101567.00;;;;4923968;29;20237;-70
2023/09/05 09:37:37;;;;;;;3.17;2.33;;;;;24.60;101569.00;;;;4914548;29;22395;-69
2023/09/05 09:40:24;;;;;;;3.90;2.60;;;;;24.70;101573.00;;;;4913580;29;20326;-70
2023/09/05 09:43:10;;;;;;;4.43;2.43;;;;;24.80;101566.00;;;;4924771;29;20268;-71
2023/09/05 09:45:59;;;;;;;3.43;2.50;;;;;24.90;101564.00;;;;4925515;28;20780;-71
2023/09/05 09:48:49;;;;;;;2.60;2.40;;;;;25.00;101562.00;;;;4919196;29;20291;-70
2023/09/05 09:51:37;;;;;;;4.43;2.50;;;;;25.20;101562.00;;;;4918457;29;20319;-69
2023/09/05 09:54:29;;;;;;;4.82;2.33;;;;;25.30;101570.00;;;;4918234;29;20289;-71
2023/09/05 09:57:23;;;;;;;4.53;2.40;;;;;25.40;101560.00;;;;4924052;29;20385;-72
2023/09/05 10:00:30;;;;;;;8.63;2.47;;;;;25.70;101558.00;;;;4923132;29;20233;-71
2023/09/05 10:03:17;;;;;;;4.72;2.60;;;;;25.90;101562.00;;;;4923799;29;20769;-71
2023/09/05 10:06:08;;;;;;;4.22;2.67;;;;;25.90;101564.00;;;;4914149;29;20368;-70
2023/09/05 10:08:54;;;;;;;3.58;2.60;;;;;26.00;101562.00;;;;4916154;29;20370;-70
2023/09/05 10:11:41;;;;;;;4.95;2.55;;;;;26.20;101567.00;;;;4922867;28;20320;-71
2023/09/05 10:14:28;;;;;;;4.13;2.20;;;;;26.30;101561.00;;;;4917234;29;20241;-71
2023/09/05 10:17:16;;;;;;;4.63;2.33;;;;;26.40;101559.00;;;;4923386;28;20230;-69
2023/09/05 10:20:04;;;;;;;3.15;2.22;;;;;26.60;101559.00;;;;4917885;29;20241;-71
2023/09/05 10:22:53;;;;;;;4.60;2.40;;;;;26.70;101550.00;;;;4924071;29;20236;-69
2023/09/05 10:25:41;;;;;;;3.80;2.22;;;;;26.80;101546.00;;;;4927654;29;20233;-70
2023/09/05 10:28:28;;;;;;;2.63;2.25;;;;;26.90;101544.00;;;;4915938;29;20245;-71
2023/09/05 10:31:15;;;;;;;4.90;2.40;;;;;27.00;101539.00;;;;4921217;29;20829;-70
2023/09/05 10:34:04;;;;;;;5.00;2.55;;;;;27.10;101545.00;;;;4921873;29;20247;-70
2023/09/05 10:36:54;;;;;;;3.35;2.30;;;;;27.10;101535.00;;;;4924016;29;20397;-70
2023/09/05 10:39:44;;;;;;;3.33;2.25;;;;;27.30;101535.00;;;;4919133;29;20240;-71
2023/09/05 10:42:33;;;;;;;3.47;2.50;;;;;27.40;101531.00;;;;4922861;28;20358;-69
2023/09/05 10:45:30;;;;;;;2.92;2.22;;;;;27.40;101541.00;;;;4916638;29;20236;-69
2023/09/05 10:48:32;;;;;;;5.75;2.80;;;;;27.30;101540.00;;;;4916673;29;20316;-70
2023/09/05 10:51:19;;;;;;;4.30;2.35;;;;;27.50;101537.00;;;;4917739;29;20225;-71
2023/09/05 10:54:26;;;;;;;3.50;2.20;;;;;27.60;101534.00;;;;4922406;29;20239;-68
2023/09/05 10:57:37;;;;;;;3.58;2.20;;;;;27.70;101532.00;;;;4918704;29;20259;-69
2023/09/05 11:00:37;;;;;;;3.33;2.30;;;;;27.90;101525.00;;;;4916661;29;20237;-70
2023/09/05 11:03:24;;;;;;;5.82;2.63;;;;;28.00;101535.00;;;;4918165;29;20241;-71
2023/09/05 11:06:12;;;;;;;2.33;2.10;;;;;28.20;101535.00;;;;4915762;29;20328;-71
2023/09/05 11:09:01;;;;;;;7.53;2.47;;;;;28.30;101537.00;;;;4922040;28;20232;-71
2023/09/05 11:11:48;;;;;;;4.15;2.33;;;;;28.50;101525.00;;;;4922804;29;20249;-71
2023/09/05 11:14:36;;;;;;;4.20;2.70;;;;;28.50;101518.00;;;;4925070;29;20765;-71
2023/09/05 11:17:23;;;;;;;4.45;2.40;;;;;28.60;101530.00;;;;4922591;29;20618;-71
2023/09/05 11:20:12;;;;;;;3.22;2.30;;;;;28.70;101525.00;;;;4926767;29;20744;-71
2023/09/05 11:23:09;;;;;;;3.85;2.47;;;;;28.90;101528.00;;;;4924781;29;20314;-68
2023/09/05 11:26:00;;;;;;;7.10;2.17;;;;;29.00;101521.00;;;;4923924;29;20292;-72
2023/09/05 11:28:48;;;;;;;4.55;2.33;;;;;29.10;101522.00;;;;4921448;29;20245;-70
2023/09/05 11:31:37;;;;;;;3.10;2.42;;;;;29.10;101515.00;;;;4930378;29;20228;-71
2023/09/05 11:34:25;;;;;;;2.88;2.30;;;;;29.20;101519.00;;;;4922917;29;20292;-71
2023/09/05 11:37:18;;;;;;;5.15;2.33;;;;;29.30;101519.00;;;;4927037;28;21030;-69
2023/09/05 11:40:12;;;;;;;2.22;2.00;;;;;29.40;101517.00;;;;4922751;29;20228;-69
2023/09/05 11:43:04;;;;;;;3.22;2.40;;;;;29.40;101515.00;;;;4921722;29;20232;-69
2023/09/05 11:45:53;;;;;;;3.92;2.65;;;;;29.50;101509.00;;;;4927813;29;20334;-69
2023/09/05 11:48:42;;;;;;;3.13;2.30;;;;;29.60;101513.00;;;;4922301;29;20233;-67
2023/09/05 11:51:30;;;;;;;4.63;2.10;;;;;29.50;101507.00;;;;4918220;29;20253;-69
2023/09/05 11:54:17;;;;;;;3.55;2.38;;;;;29.70;101512.00;;;;4920596;28;20229;-69
2023/09/05 11:57:03;;;;;;;4.93;2.40;;;;;29.80;101511.00;;;;4924515;28;20339;-69
2023/09/05 11:59:50;;;;;;;6.82;2.30;;;;;29.80;101506.00;;;;4915144;29;20301;-69
2023/09/05 12:02:37;;;;;;;3.05;2.40;;;;;29.90;101496.00;;;;4924471;29;20245;-69
2023/09/05 12:05:25;;;;;;;3.70;2.03;;;;;29.90;101492.00;;;;4917839;29;20718;-69
2023/09/05 12:08:12;;;;;;;3.40;2.13;;;;;30.10;101486.00;;;;4918761;28;20383;-72
2023/09/05 12:11:24;;;;;;;4.57;2.10;;;;;30.30;101486.00;;;;4910507;29;20288;-71
2023/09/05 12:14:11;;;;;;;2.42;2.10;;;;;30.50;101490.00;;;;4910159;28;20244;-71
2023/09/05 12:16:57;;;;;;;2.47;2.15;;;;;30.60;101491.00;;;;4912132;28;20232;-71
2023/09/05 12:19:45;;;;;;;3.70;1.90;;;;;30.70;101484.00;;;;4926140;28;20640;-71
2023/09/05 12:22:33;;;;;;;7.63;1.85;;;;;30.70;101485.00;;;;4912648;29;20350;-71
2023/09/05 12:25:24;;;;;;;3.40;1.67;;;;;30.80;101485.00;;;;4920187;29;20233;-70
2023/09/05 12:28:17;;;;;;;3.97;1.77;;;;;31.00;101488.00;;;;4925637;28;20376;-71
2023/09/05 12:31:09;;;;;;;2.45;1.75;;;;;31.10;101492.00;;;;4912850;29;20229;-71
2023/09/05 12:33:56;;;;;;;4.07;1.90;;;;;31.00;101492.00;;;;4921908;29;20688;-71
2023/09/05 12:36:43;;;;;;;2.75;1.60;;;;;31.10;101484.00;;;;4920249;28;20240;-70
2023/09/05 12:39:31;;;;;;;2.00;1.55;;;;;31.20;101484.00;;;;4919468;29;20264;-69
2023/09/05 12:42:17;;;;;;;3.17;1.67;;;;;31.30;101471.00;;;;4918797;29;20233;-71
2023/09/05 12:45:04;;;;;;;2.05;1.60;;;;;31.60;101478.00;;;;4914718;29;20228;-72
2023/09/05 12:47:51;;;;;;;1.70;1.60;;;;;31.60;101471.00;;;;4925116;28;20304;-69
2023/09/05 12:50:38;;;;;;;1.50;1.40;;;;;31.70;101469.00;;;;4923296;29;20237;-72
2023/09/05 12:53:24;;;;;;;2.60;1.70;;;;;31.90;101473.00;;;;4923471;29;20613;-69
2023/09/05 12:56:12;;;;;;;5.45;1.77;;;;;31.90;101467.00;;;;4927350;29;20229;-71
2023/09/05 12:58:59;;;;;;;1.98;1.58;;;;;31.90;101465.00;;;;4921735;28;20244;-71
2023/09/05 13:01:46;;;;;;;3.13;1.80;;;;;31.90;101463.00;;;;4919177;29;20630;-69
2023/09/05 13:04:32;;;;;;;3.92;1.75;;;;;31.80;101455.00;;;;4922351;29;20726;-72
2023/09/05 13:07:19;;;;;;;2.08;1.58;;;;;32.00;101460.00;;;;4922788;28;20241;-74
2023/09/05 13:10:06;;;;;;;5.03;1.70;;;;;31.90;101448.00;;;;4922465;28;20236;-69
2023/09/05 13:12:54;;;;;;;1.90;1.70;;;;;32.00;101454.00;;;;4920129;28;20240;-68
2023/09/05 13:15:45;;;;;;;2.05;1.52;;;;;31.90;101455.00;;;;4921490;29;20234;-74
2023/09/05 13:18:32;;;;;;;4.28;1.45;;;;;31.90;101456.00;;;;4920679;29;20286;-69
2023/09/05 13:21:18;;;;;;;1.45;1.35;;;;;32.10;101454.00;;;;4919713;29;20609;-70
2023/09/05 13:24:06;;;;;;;3.83;1.70;;;;;32.20;101453.00;;;;4914757;29;20230;-69
2023/09/05 13:26:54;;;;;;;4.15;1.60;;;;;32.20;101442.00;;;;4920579;28;20316;-69
2023/09/05 13:29:42;;;;;;;2.65;1.60;;;;;32.30;101449.00;;;;4914146;29;20232;-69
2023/09/05 13:32:29;;;;;;;7.72;1.77;;;;;32.40;101450.00;;;;4918047;28;20391;-70
2023/09/05 13:35:15;;;;;;;5.50;1.70;;;;;32.50;101451.00;;;;4922902;29;20240;-70
2023/09/05 13:38:01;;;;;;;2.03;1.73;;;;;32.40;101454.00;;;;4922677;28;20272;-69
2023/09/05 13:40:47;;;;;;;3.58;1.60;;;;;32.60;101454.00;;;;4918137;29;20253;-70
2023/09/05 13:43:34;;;;;;;3.60;1.52;;;;;32.60;101445.00;;;;4917546;29;20238;-70
2023/09/05 13:46:21;;;;;;;1.55;1.42;;;;;32.70;101441.00;;;;4917502;29;20648;-69
2023/09/05 13:49:08;;;;;;;3.70;1.60;;;;;32.70;101437.00;;;;4927905;29;20241;-71
2023/09/05 13:51:55;;;;;;;1.70;1.52;;;;;32.80;101445.00;;;;4924073;29;20241;-70
2023/09/05 13:54:41;;;;;;;5.38;1.40;;;;;32.80;101438.00;;;;4923145;28;20237;-73